Terminal Aerodrome Forecast
Issued by NWS

Home | Current Version | Previous Version | Text Only | Print | Product List | Glossary On
Versions: 1 2 3 4 5 6 7 8 9 10 11 12 13 14 15 16 17
000
FTUS41 KPBZ 061134
TAFBVI
TAF
KBVI 061134Z 0612/0712 08003KT P6SM BKN200
     FM061500 11012G18KT P6SM -RA OVC050
     FM061800 13012G18KT 3SM -RA OVC012
     FM070000 12005KT P6SM VCSH OVC008
     FM070600 27008KT P6SM BKN015=

USA.gov is the U.S. government's official web portal to all federal, state and local government web resources and services.